createdAt,value
2017-10-24T00:00:44.358Z,91.10
2017-10-24T00:03:13.507Z,91.20
2017-10-24T00:05:42.786Z,91.00
2017-10-24T00:08:12.212Z,90.90
2017-10-24T00:10:41.449Z,90.80
2017-10-24T00:13:11.264Z,90.80
2017-10-24T00:15:40.336Z,90.80
2017-10-24T00:18:09.609Z,90.60
2017-10-24T00:20:39.919Z,90.50
2017-10-24T00:23:09.376Z,90.50
2017-10-24T00:25:46.137Z,90.60
2017-10-24T00:28:20.142Z,90.70
2017-10-24T00:30:49.558Z,90.70
2017-10-24T00:33:19.137Z,90.60
2017-10-24T00:35:48.422Z,90.50
2017-10-24T00:38:17.580Z,90.70
2017-10-24T00:40:47.078Z,90.70
2017-10-24T00:43:16.213Z,90.50
2017-10-24T00:45:46.602Z,90.50
2017-10-24T00:48:19.237Z,90.70
2017-10-24T00:50:49.333Z,90.70
2017-10-24T00:53:19.472Z,90.50
2017-10-24T00:55:49.828Z,90.80
2017-10-24T00:58:20.524Z,90.60
2017-10-24T01:00:50.284Z,90.60
2017-10-24T01:03:19.532Z,90.60
2017-10-24T01:05:49.469Z,90.80
2017-10-24T01:08:19.451Z,90.50
2017-10-24T01:10:49.217Z,90.50
2017-10-24T01:13:21.257Z,90.50
2017-10-24T01:15:50.726Z,90.40
2017-10-24T01:18:19.687Z,90.40
2017-10-24T01:20:48.884Z,90.50
2017-10-24T01:23:18.539Z,90.50
2017-10-24T01:25:48.058Z,90.40
2017-10-24T01:28:18.572Z,90.30
2017-10-24T01:30:47.917Z,90.30
2017-10-24T01:33:18.216Z,90.10
2017-10-24T01:35:48.734Z,90.10
2017-10-24T01:38:19.361Z,90.20
2017-10-24T01:40:50.125Z,90.20
2017-10-24T01:43:19.749Z,90.20
2017-10-24T01:45:48.993Z,90.30
2017-10-24T01:48:18.447Z,90.20
2017-10-24T01:50:47.559Z,90.10
2017-10-24T01:53:17.018Z,90.00
2017-10-24T01:55:46.361Z,90.10
2017-10-24T01:58:15.931Z,90.10
2017-10-24T02:00:48.080Z,89.80
2017-10-24T02:03:36.431Z,89.80
2017-10-24T02:06:18.560Z,89.80
2017-10-24T02:08:48.131Z,90.00
2017-10-24T02:11:19.513Z,90.00
2017-10-24T02:13:49.182Z,90.00
2017-10-24T02:16:18.508Z,90.10
2017-10-24T02:18:49.529Z,90.30
2017-10-24T02:21:19.042Z,90.20
2017-10-24T02:23:49.777Z,90.30
2017-10-24T02:26:20.092Z,90.50
2017-10-24T02:28:49.903Z,90.60
2017-10-24T02:31:19.297Z,90.70
2017-10-24T02:33:48.554Z,90.60
2017-10-24T02:36:17.759Z,90.70
2017-10-24T02:38:58.647Z,91.00
2017-10-24T02:41:39.924Z,91.00
2017-10-24T02:44:10.384Z,91.30
2017-10-24T02:51:15.866Z,91.60
2017-10-24T02:53:46.719Z,91.50
2017-10-24T02:56:16.637Z,91.50
2017-10-24T02:58:47.236Z,91.50
2017-10-24T03:01:17.612Z,91.50
2017-10-24T03:03:48.574Z,91.50
2017-10-24T03:06:18.747Z,91.70
2017-10-24T03:08:48.865Z,91.80
2017-10-24T03:11:18.109Z,92.00
2017-10-24T03:13:47.281Z,92.00
2017-10-24T03:16:16.629Z,92.20
2017-10-24T03:18:46.245Z,92.30
2017-10-24T03:21:16.044Z,92.20
2017-10-24T03:23:46.119Z,92.00
2017-10-24T03:26:17.731Z,92.20
2017-10-24T03:28:47.097Z,92.20
2017-10-24T03:31:23.030Z,92.20
2017-10-24T03:33:59.576Z,92.10
2017-10-24T03:36:35.122Z,92.30
2017-10-24T03:39:05.001Z,92.20
2017-10-24T03:41:34.738Z,92.20
2017-10-24T03:44:04.001Z,92.20
2017-10-24T03:46:33.541Z,92.20
2017-10-24T03:49:05.010Z,92.40
2017-10-24T03:51:35.417Z,92.40
2017-10-24T03:54:05.970Z,92.20
2017-10-24T03:56:36.113Z,92.20
2017-10-24T03:59:06.699Z,92.00
2017-10-24T04:01:36.011Z,92.00
2017-10-24T04:04:05.800Z,91.90
2017-10-24T04:06:35.903Z,92.00
2017-10-24T04:09:05.473Z,91.90
2017-10-24T04:11:36.047Z,91.90
2017-10-24T04:14:05.376Z,91.90
2017-10-24T04:16:36.532Z,91.90
2017-10-24T04:19:06.894Z,91.70
2017-10-24T04:21:36.247Z,91.70
2017-10-24T04:24:06.506Z,91.60
2017-10-24T04:26:36.799Z,91.50
2017-10-24T04:29:06.198Z,91.50
2017-10-24T04:31:35.454Z,91.50
2017-10-24T04:34:04.684Z,91.30
2017-10-24T04:36:33.942Z,91.20
2017-10-24T04:39:03.016Z,91.30
2017-10-24T04:41:32.923Z,91.00
2017-10-24T04:44:03.127Z,91.10
2017-10-24T04:46:32.437Z,91.10
2017-10-24T04:49:01.784Z,91.00
2017-10-24T04:51:31.136Z,91.20
2017-10-24T04:54:00.384Z,91.00
2017-10-24T04:56:30.381Z,91.00
2017-10-24T04:59:00.294Z,91.00
2017-10-24T05:01:30.217Z,91.00
2017-10-24T05:03:59.432Z,91.00
2017-10-24T05:06:28.612Z,91.00
2017-10-24T05:08:59.291Z,91.00
2017-10-24T05:11:29.398Z,90.80
2017-10-24T05:13:59.143Z,90.80
2017-10-24T05:16:28.384Z,90.90
2017-10-24T05:18:57.631Z,91.10
2017-10-24T05:21:27.525Z,91.00
2017-10-24T05:23:57.993Z,90.90
2017-10-24T05:26:28.397Z,90.70
2017-10-24T05:28:57.548Z,90.70
2017-10-24T05:31:27.953Z,90.80
2017-10-24T05:33:57.986Z,90.90
2017-10-24T05:36:27.512Z,90.90
2017-10-24T05:38:56.798Z,90.90
2017-10-24T05:41:26.112Z,90.70
2017-10-24T05:43:55.410Z,90.80
2017-10-24T05:46:24.747Z,90.90
2017-10-24T05:48:53.950Z,91.00
2017-10-24T05:51:23.240Z,91.00
2017-10-24T05:53:53.130Z,91.00
2017-10-24T05:56:22.779Z,91.00
2017-10-24T05:58:52.934Z,91.10
2017-10-24T06:01:22.356Z,91.10
2017-10-24T06:03:51.741Z,91.10
2017-10-24T06:06:20.984Z,91.00
2017-10-24T06:08:50.634Z,90.90
2017-10-24T06:11:20.731Z,90.80
2017-10-24T06:13:54.038Z,90.80
2017-10-24T06:16:24.343Z,90.80
2017-10-24T06:21:29.743Z,90.80
2017-10-24T06:23:59.874Z,90.70
2017-10-24T06:26:29.675Z,90.90
2017-10-24T06:28:59.230Z,90.90
2017-10-24T06:31:28.564Z,90.90
2017-10-24T06:33:58.924Z,90.80
2017-10-24T06:36:28.424Z,90.80
2017-10-24T06:38:58.232Z,90.80
2017-10-24T06:41:27.582Z,90.60
2017-10-24T06:43:56.729Z,90.60
2017-10-24T06:46:26.209Z,90.70
2017-10-24T06:48:55.418Z,90.80
2017-10-24T06:51:26.909Z,90.80
2017-10-24T06:53:56.127Z,90.60
2017-10-24T06:56:25.437Z,90.60
2017-10-24T06:59:00.251Z,90.70
2017-10-24T07:01:36.966Z,90.60
2017-10-24T07:04:16.402Z,90.70
2017-10-24T07:06:54.560Z,90.70
2017-10-24T07:09:23.925Z,90.60
2017-10-24T07:11:54.329Z,91.20
2017-10-24T07:14:28.667Z,91.20
2017-10-24T07:17:04.924Z,91.40
2017-10-24T07:19:35.588Z,91.50
2017-10-24T07:26:41.730Z,91.60
2017-10-24T07:29:16.568Z,91.70
2017-10-24T07:31:46.568Z,91.60
2017-10-24T07:34:18.048Z,91.60
2017-10-24T07:36:52.537Z,91.40
2017-10-24T07:39:30.580Z,91.60
2017-10-24T07:42:00.598Z,91.30
2017-10-24T07:44:30.022Z,91.00
2017-10-24T07:47:01.494Z,90.90
2017-10-24T07:49:32.608Z,90.80
2017-10-24T07:52:02.293Z,90.40
2017-10-24T07:54:33.048Z,90.00
2017-10-24T07:57:02.409Z,90.00
2017-10-24T07:59:31.926Z,89.40
2017-10-24T08:02:03.498Z,88.80
2017-10-24T08:04:33.665Z,88.20
2017-10-24T08:07:03.382Z,88.20
2017-10-24T08:09:32.807Z,88.30
2017-10-24T08:12:02.945Z,86.80
2017-10-24T08:14:33.063Z,86.90
2017-10-24T08:17:03.999Z,86.10
2017-10-24T08:19:33.570Z,86.10
2017-10-24T08:22:03.005Z,84.90
2017-10-24T08:24:33.082Z,83.60
2017-10-24T08:27:02.284Z,83.60
2017-10-24T08:29:31.988Z,83.10
2017-10-24T08:32:01.286Z,82.70
2017-10-24T08:34:30.794Z,81.70
2017-10-24T08:37:00.232Z,81.30
2017-10-24T08:39:30.290Z,78.50
2017-10-24T08:41:59.574Z,78.50
2017-10-24T08:44:29.855Z,79.10
2017-10-24T08:47:00.161Z,79.50
2017-10-24T08:49:29.554Z,79.40
2017-10-24T08:51:58.807Z,78.90
2017-10-24T08:54:28.354Z,79.40
2017-10-24T08:56:57.742Z,79.70
2017-10-24T08:59:28.453Z,80.00
2017-10-24T09:01:58.464Z,80.30
2017-10-24T09:04:28.571Z,80.10
2017-10-24T09:06:59.107Z,80.40
2017-10-24T09:09:35.501Z,80.30
2017-10-24T09:12:05.244Z,81.00
2017-10-24T09:14:34.770Z,79.60
2017-10-24T09:17:04.911Z,79.00
2017-10-24T09:19:43.893Z,78.40
2017-10-24T09:22:24.261Z,78.40
2017-10-24T09:25:08.745Z,78.00
2017-10-24T09:27:38.569Z,78.20
2017-10-24T09:30:08.234Z,77.90
2017-10-24T09:32:37.932Z,77.30
2017-10-24T09:35:07.709Z,76.40
2017-10-24T09:37:39.642Z,76.10
2017-10-24T09:40:11.341Z,76.10
2017-10-24T09:42:41.623Z,74.70
2017-10-24T09:45:11.633Z,73.80
2017-10-24T09:47:41.432Z,73.80
2017-10-24T09:50:12.166Z,73.10
2017-10-24T09:52:41.880Z,73.10
2017-10-24T09:55:11.901Z,72.60
2017-10-24T09:57:41.369Z,72.80
2017-10-24T10:00:09.804Z,72.90
2017-10-24T10:02:40.002Z,73.50
2017-10-24T10:05:09.404Z,73.70
2017-10-24T10:07:38.968Z,74.10
2017-10-24T10:10:08.168Z,74.30
2017-10-24T10:12:37.613Z,74.10
2017-10-24T10:15:06.706Z,74.10
2017-10-24T10:17:36.300Z,74.20
2017-10-24T10:20:06.179Z,74.40
2017-10-24T10:22:36.405Z,73.70
2017-10-24T10:25:06.881Z,73.60
2017-10-24T10:27:36.276Z,73.50
2017-10-24T10:30:06.344Z,73.30
2017-10-24T10:32:36.977Z,72.30
2017-10-24T10:35:07.212Z,72.00
2017-10-24T10:37:37.609Z,72.10
2017-10-24T10:40:07.264Z,72.10
2017-10-24T10:42:36.485Z,71.90
2017-10-24T10:45:05.914Z,72.80
2017-10-24T10:47:35.181Z,72.60
2017-10-24T10:50:04.991Z,71.60
2017-10-24T10:52:34.745Z,72.10
2017-10-24T10:55:05.182Z,71.90
2017-10-24T10:57:34.651Z,71.80
2017-10-24T11:00:04.831Z,71.80
2017-10-24T11:02:34.937Z,71.40
2017-10-24T11:05:04.870Z,70.80
2017-10-24T11:07:35.126Z,69.50
2017-10-24T11:10:04.725Z,69.70
2017-10-24T11:12:34.443Z,69.10
2017-10-24T11:15:04.216Z,69.00
2017-10-24T11:17:34.095Z,68.50
2017-10-24T11:20:05.667Z,64.40
2017-10-24T11:22:37.930Z,62.90
2017-10-24T11:25:08.335Z,61.60
2017-10-24T11:27:37.941Z,61.60
2017-10-24T11:30:07.426Z,61.10
2017-10-24T11:32:36.902Z,62.80
2017-10-24T11:35:06.498Z,64.40
2017-10-24T11:37:36.600Z,65.30
2017-10-24T11:40:07.369Z,65.30
2017-10-24T11:42:36.748Z,65.30
2017-10-24T11:45:06.326Z,66.60
2017-10-24T11:47:36.170Z,67.60
2017-10-24T11:50:07.237Z,67.80
2017-10-24T11:52:37.718Z,68.30
2017-10-24T11:55:07.194Z,68.80
2017-10-24T11:57:37.098Z,68.90
2017-10-24T12:00:08.225Z,68.30
2017-10-24T12:02:38.247Z,68.10
2017-10-24T12:05:07.819Z,67.90
2017-10-24T12:07:37.414Z,69.30
2017-10-24T12:10:08.004Z,70.30
2017-10-24T12:12:38.225Z,72.80
2017-10-24T12:15:08.611Z,75.50
2017-10-24T12:17:38.354Z,75.70
2017-10-24T12:20:07.901Z,75.90
2017-10-24T12:22:37.360Z,75.90
2017-10-24T12:25:08.368Z,76.00
2017-10-24T12:27:37.725Z,75.80
2017-10-24T12:30:07.502Z,76.70
2017-10-24T12:32:37.272Z,78.70
2017-10-24T12:35:07.744Z,80.90
2017-10-24T12:37:37.613Z,80.90
2017-10-24T12:40:07.172Z,80.90
2017-10-24T12:42:37.596Z,81.10
2017-10-24T12:45:07.492Z,80.70
2017-10-24T12:47:39.169Z,80.20
2017-10-24T12:50:20.226Z,80.20
2017-10-24T12:53:04.696Z,80.30
2017-10-24T12:55:34.505Z,80.20
2017-10-24T12:58:04.020Z,80.10
2017-10-24T13:00:33.886Z,79.80
2017-10-24T13:03:04.145Z,79.70
2017-10-24T13:05:33.789Z,79.60
2017-10-24T13:08:03.065Z,79.90
2017-10-24T13:10:35.059Z,80.90
2017-10-24T13:13:04.649Z,81.60
2017-10-24T13:15:39.927Z,83.00
2017-10-24T13:18:14.473Z,85.70
2017-10-24T13:20:50.256Z,85.60
2017-10-24T13:23:20.978Z,86.10
2017-10-24T13:25:50.434Z,86.40
2017-10-24T13:28:26.204Z,87.10
2017-10-24T13:30:57.598Z,86.90
2017-10-24T13:33:28.729Z,87.00
2017-10-24T13:35:58.932Z,86.80
2017-10-24T13:38:28.298Z,87.00
2017-10-24T13:40:59.235Z,86.60
2017-10-24T13:43:30.497Z,86.70
2017-10-24T13:46:00.768Z,86.70
2017-10-24T13:48:30.439Z,86.20
2017-10-24T13:51:00.038Z,86.10
2017-10-24T13:53:30.289Z,85.90
2017-10-24T13:55:59.662Z,85.90
2017-10-24T13:58:31.247Z,85.70
2017-10-24T14:01:00.911Z,85.60
2017-10-24T14:03:31.139Z,85.20
2017-10-24T14:08:13.641Z,86.00
2017-10-24T14:10:46.596Z,85.30
2017-10-24T14:13:18.815Z,86.50
2017-10-24T14:15:49.804Z,86.70
2017-10-24T14:18:20.766Z,87.10
2017-10-24T14:20:50.521Z,87.40
2017-10-24T14:23:22.281Z,88.80
2017-10-24T14:25:53.416Z,89.70
2017-10-24T14:28:23.696Z,89.00
2017-10-24T14:30:53.821Z,89.80
2017-10-24T14:33:24.400Z,88.50
2017-10-24T14:35:54.606Z,88.40
2017-10-24T14:38:25.384Z,88.40
2017-10-24T14:40:56.452Z,88.40
2017-10-24T14:43:27.184Z,88.90
2017-10-24T14:45:56.997Z,88.10
2017-10-24T14:48:28.487Z,87.00
2017-10-24T14:50:59.578Z,86.90
2017-10-24T14:53:29.241Z,86.90
2017-10-24T14:55:58.832Z,86.40
2017-10-24T14:58:28.059Z,86.50
2017-10-24T15:00:58.953Z,87.30
2017-10-24T15:03:28.478Z,86.50
2017-10-24T15:05:57.904Z,86.60
2017-10-24T15:08:28.109Z,86.50
2017-10-24T15:10:57.522Z,86.50
2017-10-24T15:13:29.016Z,85.70
2017-10-24T15:15:58.476Z,85.70
2017-10-24T15:18:28.986Z,85.50
2017-10-24T15:20:58.661Z,85.50
2017-10-24T15:23:28.415Z,85.00
2017-10-24T15:25:58.042Z,84.80
2017-10-24T15:28:28.509Z,84.80
2017-10-24T15:31:00.388Z,84.30
2017-10-24T15:33:30.265Z,84.30
2017-10-24T15:36:01.404Z,84.50
2017-10-24T15:38:31.654Z,84.10
2017-10-24T15:41:04.422Z,83.70
2017-10-24T15:43:34.751Z,83.80
2017-10-24T15:46:04.461Z,83.80
2017-10-24T15:48:40.347Z,83.90
2017-10-24T15:51:10.531Z,84.30
2017-10-24T15:53:40.519Z,84.20
2017-10-24T15:56:13.197Z,85.40
2017-10-24T15:58:45.256Z,85.40
2017-10-24T16:01:22.103Z,86.80
2017-10-24T16:04:03.361Z,86.70
2017-10-24T16:06:35.268Z,88.60
2017-10-24T16:09:08.346Z,90.10
2017-10-24T16:11:38.679Z,90.10
2017-10-24T16:14:10.131Z,90.70
2017-10-24T16:16:40.549Z,90.80
2017-10-24T16:19:11.451Z,91.30
2017-10-24T16:21:54.431Z,91.30
2017-10-24T16:24:41.191Z,91.10
2017-10-24T16:27:18.225Z,91.00
2017-10-24T16:29:48.190Z,91.00
2017-10-24T16:32:18.428Z,90.90
2017-10-24T16:34:48.791Z,90.80
2017-10-24T16:37:18.985Z,90.80
2017-10-24T16:39:49.823Z,90.90
2017-10-24T16:42:28.508Z,90.90
2017-10-24T16:45:10.795Z,90.90
2017-10-24T16:47:48.557Z,91.00
2017-10-24T16:50:35.434Z,91.00
2017-10-24T16:53:12.737Z,91.30
2017-10-24T16:55:45.157Z,91.30
2017-10-24T16:58:15.766Z,91.20
2017-10-24T17:00:47.649Z,90.90
2017-10-24T17:03:17.925Z,91.00
2017-10-24T17:05:49.725Z,91.10
2017-10-24T17:08:22.001Z,91.20
2017-10-24T17:10:53.351Z,91.20
2017-10-24T17:13:24.608Z,91.00
2017-10-24T17:15:58.616Z,91.10
2017-10-24T17:18:34.616Z,91.10
2017-10-24T17:21:05.408Z,91.10
2017-10-24T17:23:36.258Z,91.20
2017-10-24T17:26:11.427Z,91.20
2017-10-24T17:28:45.286Z,91.10
2017-10-24T17:31:27.304Z,90.90
2017-10-24T17:33:59.705Z,91.00
2017-10-24T17:36:33.085Z,90.90
2017-10-24T17:39:06.607Z,90.60
2017-10-24T17:41:40.306Z,90.60
2017-10-24T17:44:11.162Z,90.60
2017-10-24T17:46:40.914Z,90.50
2017-10-24T17:49:16.434Z,90.30
2017-10-24T17:51:50.295Z,90.70
2017-10-24T17:54:24.765Z,90.40
2017-10-24T17:56:57.178Z,90.20
2017-10-24T17:59:30.378Z,90.20
2017-10-24T18:02:02.472Z,90.00
2017-10-24T18:04:33.812Z,90.00
2017-10-24T18:07:06.781Z,89.40
2017-10-24T18:09:42.030Z,89.40
2017-10-24T18:12:16.813Z,89.10
2017-10-24T18:15:01.227Z,88.80
2017-10-24T18:17:37.442Z,89.00
2017-10-24T18:20:12.804Z,89.00
2017-10-24T18:22:48.608Z,89.20
2017-10-24T18:25:21.615Z,89.10
2017-10-24T18:27:58.543Z,89.10
2017-10-24T18:30:32.375Z,89.00
2017-10-24T18:33:06.959Z,89.00
2017-10-24T18:35:45.740Z,89.30
2017-10-24T18:38:21.077Z,89.50
2017-10-24T18:41:03.673Z,89.20
2017-10-24T18:43:41.138Z,89.30
2017-10-24T18:46:15.671Z,89.30
2017-10-24T18:48:56.058Z,89.10
2017-10-24T18:51:31.586Z,89.40
2017-10-24T18:54:06.952Z,89.20
2017-10-24T18:56:46.491Z,89.50
2017-10-24T18:59:20.045Z,89.60
2017-10-24T19:01:54.365Z,89.40
2017-10-24T19:04:31.744Z,89.70
2017-10-24T19:07:06.052Z,89.60
2017-10-24T19:09:43.188Z,89.70
2017-10-24T19:12:18.269Z,89.60
2017-10-24T19:14:51.259Z,89.90
2017-10-24T19:17:26.092Z,89.40
2017-10-24T19:19:58.179Z,89.80
2017-10-24T19:22:33.258Z,89.80
2017-10-24T19:25:10.371Z,89.70
2017-10-24T19:27:54.940Z,89.90
2017-10-24T19:30:31.108Z,89.90
2017-10-24T19:33:10.653Z,89.90
2017-10-24T19:35:46.161Z,89.80
2017-10-24T19:38:19.251Z,89.50
2017-10-24T19:40:56.082Z,89.70
2017-10-24T19:43:31.139Z,89.50
2017-10-24T19:46:13.605Z,89.50
2017-10-24T19:49:02.116Z,89.50
2017-10-24T19:51:41.604Z,89.50
2017-10-24T19:54:23.072Z,89.70
2017-10-24T19:56:57.181Z,89.40
2017-10-24T19:59:34.079Z,89.40
2017-10-24T20:02:08.071Z,89.40
2017-10-24T20:04:41.557Z,89.70
2017-10-24T20:07:15.576Z,89.50
2017-10-24T20:09:54.032Z,89.30
2017-10-24T20:12:29.666Z,89.60
2017-10-24T20:15:04.950Z,89.60
2017-10-24T20:17:40.158Z,89.20
2017-10-24T20:20:16.435Z,89.20
2017-10-24T20:22:52.330Z,89.30
2017-10-24T20:25:25.975Z,89.20
2017-10-24T20:28:00.702Z,89.40
2017-10-24T20:30:44.267Z,90.00
2017-10-24T20:33:31.120Z,90.10
2017-10-24T20:36:14.074Z,90.20
2017-10-24T20:38:57.893Z,90.10
2017-10-24T20:44:22.996Z,90.20
2017-10-24T20:46:57.071Z,90.20
2017-10-24T20:49:31.312Z,90.30
2017-10-24T20:52:03.760Z,90.30
2017-10-24T20:54:39.326Z,90.30
2017-10-24T20:57:10.222Z,90.30
2017-10-24T20:59:46.684Z,90.30
2017-10-24T21:02:27.053Z,90.40
2017-10-24T21:05:07.992Z,90.50
2017-10-24T21:07:44.153Z,90.90
2017-10-24T21:10:21.419Z,91.00
2017-10-24T21:12:59.155Z,91.20
2017-10-24T21:15:35.416Z,91.40
2017-10-24T21:18:15.395Z,91.10
2017-10-24T21:20:50.767Z,91.20
2017-10-24T21:23:21.372Z,91.30
2017-10-24T21:25:51.348Z,91.30
2017-10-24T21:28:25.356Z,91.20
2017-10-24T21:31:21.088Z,91.20
2017-10-24T21:33:52.119Z,91.00
2017-10-24T21:36:22.243Z,90.70
2017-10-24T21:38:51.846Z,90.80
2017-10-24T21:41:22.913Z,90.80
2017-10-24T21:43:53.284Z,90.80
2017-10-24T21:46:23.779Z,91.00
2017-10-24T21:48:56.225Z,90.90
2017-10-24T21:51:26.503Z,90.70
2017-10-24T21:53:57.043Z,90.90
2017-10-24T21:56:29.064Z,90.90
2017-10-24T21:59:04.567Z,90.90
2017-10-24T22:01:40.529Z,91.00
2017-10-24T22:04:12.889Z,90.80
2017-10-24T22:06:42.824Z,90.70
2017-10-24T22:09:12.323Z,90.80
2017-10-24T22:11:55.063Z,90.60
2017-10-24T22:14:46.585Z,90.40
2017-10-24T22:17:31.784Z,90.40
2017-10-24T22:20:19.343Z,90.20
2017-10-24T22:22:54.599Z,90.40
2017-10-24T22:25:39.519Z,90.40
2017-10-24T22:28:09.772Z,90.40
2017-10-24T22:30:40.178Z,90.20
2017-10-24T22:33:09.805Z,90.20
2017-10-24T22:35:52.734Z,90.30
2017-10-24T22:38:22.037Z,90.30
2017-10-24T22:40:54.763Z,90.30
2017-10-24T22:43:24.502Z,90.40
2017-10-24T22:45:58.138Z,90.40
2017-10-24T22:48:41.260Z,90.40
2017-10-24T22:51:15.030Z,90.40
2017-10-24T22:56:40.190Z,90.50
2017-10-24T22:59:14.334Z,90.40
2017-10-24T23:01:50.064Z,90.40
2017-10-24T23:04:20.271Z,90.40
2017-10-24T23:06:49.734Z,90.40
2017-10-24T23:09:23.502Z,90.40
2017-10-24T23:12:20.294Z,90.40
2017-10-24T23:14:53.205Z,90.50
2017-10-24T23:17:22.880Z,90.50
2017-10-24T23:19:52.250Z,90.20
2017-10-24T23:22:24.338Z,90.20
2017-10-24T23:24:57.230Z,90.40
2017-10-24T23:27:26.455Z,90.30
2017-10-24T23:29:57.173Z,90.10
2017-10-24T23:32:26.813Z,90.10
2017-10-24T23:34:56.039Z,90.00
2017-10-24T23:37:31.062Z,90.00
2017-10-24T23:40:00.453Z,89.80
2017-10-24T23:42:34.112Z,89.90
2017-10-24T23:45:06.885Z,89.90
2017-10-24T23:47:41.648Z,90.20
2017-10-24T23:50:15.105Z,90.60
2017-10-24T23:52:51.372Z,91.60
2017-10-24T23:55:20.637Z,91.60
2017-10-24T23:57:52.226Z,92.00
